Historique des mesures à Cassis (13260), France
Quotidien Résumé Décembre 21, 2017 Unités:  Métrique    US   Métrique/US
« Précédent (Jour)
Suivant (Jour) »
Quotidien Hebdomadaire Mensuel Annuel Période au choix
  Maximum: Minimum: Moyenne:
Température: TemperatureC °C 5.9 °C 7.6 °C
Point de rosée: DewpointC °C 0.7 °C 2.1 °C
Humidité: Humidity % 61 % 64 %
Vitesse du vent: 0 km/h 0 km/h 0.5 km/h
Rafales: 0 km/h - -
Vent:- - South
Pression: PressurehPa hPa 1028.3 hPa -
Précipitations: 0.0 mm    
Historical Graphs
 
 
Mesures pour : Décembre 21, 2017
Heure Temperature Point de rosée Pression Vent Vitesse du vent Rafales Humidité Pluie (par heure) Conditions
TemperatureC °C DewpointC °C PressurehPa hPa Calm     Humidity % HourlyPrecipMM mm SoftwareType W/m2
00:10 6.9 °C 2.2 °C 1030.4 hPa Calm     72 % 0.0 mm open2300-1.11 W/m2
01:10 6.9 °C 2.6 °C 1030.4 hPa Calm     74 % 0.0 mm open2300-1.11 W/m2
02:10 7.2 °C 2.9 °C 1030.4 hPa Calm     74 % 0.0 mm open2300-1.11 W/m2
03:10 6.9 °C 2.2 °C 1030.7 hPa Calm     72 % 0.0 mm open2300-1.11 W/m2
05:11 5.9 °C 1.4 °C 1030.7 hPa Calm     73 % 0.0 mm open2300-1.11 W/m2
06:10 5.9 °C 0.9 °C 1030.7 hPa Calm     70 % 0.0 mm open2300-1.11 W/m2
07:10 6.1 °C 0.7 °C 1031.4 hPa Calm     68 % 0.0 mm open2300-1.11 W/m2
08:10 6.6 °C 0.9 °C 1031.7 hPa Calm     67 % 0.0 mm open2300-1.11 W/m2
09:10 7.6 °C 1.6 °C 1032.1 hPa Calm     66 % 0.0 mm open2300-1.11 W/m2
10:10 8.6 °C 2.4 °C 1032.4 hPa Calm     65 % 0.0 mm open2300-1.11 W/m2
11:10 9.5 °C 3.0 °C 1032.7 hPa West 1.8 km/h 1.8 km/h 64 % 0.0 mm open2300-1.11 W/m2
12:10 10.4 °C 3.8 °C 1032.1 hPa Calm     64 % 0.0 mm open2300-1.11 W/m2
13:10 10.7 °C 3.9 °C 1031.4 hPa Calm     63 % 0.0 mm open2300-1.11 W/m2
15:10 11.0 °C 3.9 °C 1030.0 hPa Calm     62 % 0.0 mm open2300-1.11 W/m2
16:10 10.5 °C 3.3 °C 1030.0 hPa Calm   11.6 km/h 61 % 0.0 mm open2300-1.11 W/m2
17:10 9.4 °C 2.7 °C 1029.7 hPa Calm     63 % 0.0 mm open2300-1.11 W/m2
18:10 8.6 °C 2.2 °C 1029.7 hPa Calm     64 % 0.0 mm open2300-1.11 W/m2
19:10 8.1 °C 1.9 °C 1030.0 hPa Calm     65 % 0.0 mm open2300-1.11 W/m2
20:10 7.8 °C 1.8 °C 1029.3 hPa Calm     66 % 0.0 mm open2300-1.11 W/m2
21:10 7.1 °C 1.6 °C 1029.3 hPa Calm     68 % 0.0 mm open2300-1.11 W/m2
22:10 7.1 °C 1.8 °C 1028.7 hPa ENE 10.3 km/h 10.3 km/h 69 % 0.0 mm open2300-1.11 W/m2
23:10 7.0 °C 1.7 °C 1028.3 hPa Calm     69 % 0.0 mm open2300-1.11 W/m2
Observations météo à CASSIS
WU-History script by Weather Underground - 1 mb